Главная страница
METAR-TAF:

METAR-TAF

Аэропорты :

Синоп, Турция

широта: 42-00-57N, долгота: 035-03-59E, высота над уровнем моря: 7 м

Текущие метеонаблюдения

Эта сводка был подготовлена 45 минут назад, в 05:50 UTC
Ветер 6 Узел от юго-восточный
Температура 27°C
Влажность 74%
Давление 1007 hPa
Видимость 10 км и более
Рассеянная облачность на высоте 2500 фута

METAR: LTCM 210550Z 13006KT 9999 BKN025 27/22 Q1007

Время: 09:35 (06:35 UTC)

Прогноз

Эта сводка был подготовлена 1 час и 55 минут назад, в 04:40 UTC
Прогноз действительный с 21-го 06 UTC до 21-го 15 UTC
Ветер 10 Узел от восточно-юго-восточный
Видимость 10 км и более
Отдельные облака на высоте 2500 фута
Отдельные облака на высоте 10000 фута
временами
С 21-го 13 UTC до 21-го 15 UTC
небольшая облачность на высоте 2500 фута, Кучево-дождевые.
Рассеянная облачность на высоте 3000 фута
Рассеянная облачность на высоте 8000 фута
небольшие ливневые дожди

TAF: LTCM 210440Z 2106/2115 12010KT 9999 SCT025 SCT100 TEMPO 2113/2115 -SHRA FEW025CB BKN030 BKN080

Метеонаблюдения и прогнозы для более 4000 аэропортов (сводки METAR и TAF).

Имеющиеся станции представлены на карте желтыми и красными точками.

Чтобы увидеть название станции, наведите на нее мышь.

Затем щелкните, чтобы увидеть метеонаблюдения и метеопрогнозы.

Управление картой: чтобы увеличить масштаб, щелкните зеленые кнопки с черным крестиком; чтобы уменьшить масштаб, щелкните зеленую кнопку с тире; для просмотра соседних карт щелкайте зеленые стрелки.


METAR-TAF: